Etusivu
METAR-TAF:

METAR-TAF

Lentoasemat :

Federico Fellinin lentoasema

Rimini, Italia

Leveyspiiri: 44-02N, Pituuspiiri: 012-37E, korkeus merenpinnasta: 12 m

Tämänhetkinen sää

Tämä raportti tehtiin 1 tunti ja 11 minuuttia sitten, kello 13.20 UTC
Tuuli 8 kn idästä/koillisesta, vaihdellen koillisen ja idän/kaakon välillä
Lämpötila 12°C
Kosteus 47%
Ilmanpaine 1025 hPa
Näkyvyys 10 km tai enemmän
ei pilviä alle 1500 m:ssä eikä cumulonimbus-pilviä

METAR: LIPR 201320Z 07008KT 050V110 CAVOK 12/01 Q1025

Aika: 15:31 (14:31 UTC)

Sääennuste

Tämä raportti tehtiin 3 tuntia ja 31 minuuttia sitten, kello 11.00 UTC
Ennuste voimassa 20. päivästä klo 12 UTC - 20. päivään klo 21 UTC
Tuuli 7 kn koillisesta
Näkyvyys 10 km tai enemmän
ei pilviä alle 1500 m:ssä eikä cumulonimbus-pilviä

TAF: LIPR 201100Z 2012/2021 04007KT CAVOK

Säähavainnot ja -ennusteet yli 4000 lentoasemalta (METAR- ja TAF-raportit).

Käytössä olevat sääasemat on merkitty karttaan keltaisilla ja punaisilla pisteillä.

Aseta hiiri pisteen päälle nähdäksesi sääaseman nimen.

Klikkaa sitten nähdäksesi säähavainnot ja -ennusteet.

Kartan vaihtaminen: klikkaa mustalla rastilla varustettuja vihreitä pisteitä, niin voit zoomata sisään; viivalla varustettua vihreää pistettä, niin voit zoomata ulos tai vihreitä nuolia, niin pääset viereisille kartoille.


METAR-TAF: